createdAt,value
2022-08-01T00:00:11.575Z,0.00
2022-08-01T00:01:11.608Z,0.00
2022-08-01T00:02:11.613Z,0.00
2022-08-01T00:03:11.610Z,0.00
2022-08-01T00:04:11.631Z,0.00
2022-08-01T00:05:11.677Z,0.00
2022-08-01T00:06:11.637Z,0.00
2022-08-01T00:07:11.625Z,0.00
2022-08-01T00:08:11.646Z,0.00
2022-08-01T00:09:11.646Z,0.00
2022-08-01T00:10:11.647Z,0.00
2022-08-01T00:11:11.647Z,0.00
2022-08-01T00:12:11.826Z,0.00
2022-08-01T00:13:11.686Z,0.00
2022-08-01T00:14:11.660Z,0.00
2022-08-01T00:15:11.673Z,0.00
2022-08-01T00:16:11.681Z,0.00
2022-08-01T00:17:11.682Z,0.00
2022-08-01T00:18:11.720Z,0.00
2022-08-01T00:19:11.694Z,0.00
2022-08-01T00:20:11.696Z,0.00
2022-08-01T00:21:11.718Z,0.00
2022-08-01T00:22:11.724Z,0.00
2022-08-01T00:23:11.746Z,0.00
2022-08-01T00:24:14.327Z,0.00
2022-08-01T00:25:11.735Z,0.00
2022-08-01T00:26:11.747Z,0.00
2022-08-01T00:27:11.761Z,0.00
2022-08-01T00:28:11.769Z,0.00
2022-08-01T00:30:10.685Z,0.00
2022-08-01T00:30:14.600Z,0.00
2022-08-01T00:31:11.768Z,0.00
2022-08-01T00:32:11.782Z,0.00
2022-08-01T00:33:11.799Z,0.00
2022-08-01T00:34:11.792Z,0.00
2022-08-01T00:35:11.829Z,0.00
2022-08-01T00:36:11.792Z,0.00
2022-08-01T00:37:16.052Z,0.00
2022-08-01T00:38:11.816Z,0.00
2022-08-01T00:39:11.812Z,0.00
2022-08-01T00:40:11.822Z,0.00
2022-08-01T00:41:11.841Z,0.00
2022-08-01T00:42:11.845Z,0.00
2022-08-01T00:43:11.856Z,0.00
2022-08-01T00:44:11.846Z,0.00
2022-08-01T00:45:11.855Z,0.00
2022-08-01T00:46:11.882Z,0.00
2022-08-01T00:47:11.868Z,0.00
2022-08-01T00:48:11.874Z,0.00
2022-08-01T00:49:11.898Z,0.00
2022-08-01T00:50:11.910Z,0.00
2022-08-01T00:51:11.893Z,0.00
2022-08-01T00:52:11.943Z,0.00
2022-08-01T00:53:18.973Z,0.00
2022-08-01T00:54:11.917Z,0.00
2022-08-01T00:55:13.207Z,0.00
2022-08-01T00:56:11.928Z,0.00
2022-08-01T00:57:11.942Z,0.00
2022-08-01T00:58:12.414Z,0.00
2022-08-01T00:59:11.939Z,0.00
2022-08-01T01:00:11.942Z,0.00
2022-08-01T01:01:11.980Z,0.00
2022-08-01T01:02:15.795Z,0.00
2022-08-01T01:03:11.968Z,0.00
2022-08-01T01:04:11.963Z,0.00
2022-08-01T01:05:11.980Z,0.00
2022-08-01T01:06:11.983Z,0.00
2022-08-01T01:07:11.986Z,0.00
2022-08-01T01:08:11.987Z,0.00
2022-08-01T01:09:11.988Z,0.00
2022-08-01T01:10:12.195Z,0.00
2022-08-01T01:11:12.037Z,0.00
2022-08-01T01:12:12.020Z,0.00
2022-08-01T01:13:12.021Z,0.00
2022-08-01T01:14:12.027Z,0.00
2022-08-01T01:15:12.045Z,0.00
2022-08-01T01:16:12.047Z,0.00
2022-08-01T01:17:12.073Z,0.00
2022-08-01T01:18:12.063Z,0.00
2022-08-01T01:19:12.059Z,0.00
2022-08-01T01:20:12.066Z,0.00
2022-08-01T01:21:12.076Z,0.00
2022-08-01T01:22:12.079Z,0.00
2022-08-01T01:23:12.082Z,0.00
2022-08-01T01:24:12.101Z,0.00
2022-08-01T01:25:12.093Z,0.00
2022-08-01T01:26:12.127Z,0.00
2022-08-01T01:27:12.106Z,0.00
2022-08-01T01:28:12.114Z,0.00
2022-08-01T01:29:12.137Z,0.00
2022-08-01T01:30:12.119Z,0.00
2022-08-01T01:31:12.131Z,0.00
2022-08-01T01:32:12.148Z,0.00
2022-08-01T01:33:12.142Z,0.00
2022-08-01T01:34:12.169Z,0.00
2022-08-01T01:35:12.152Z,0.00
2022-08-01T01:36:12.152Z,0.00
2022-08-01T01:37:12.162Z,0.00
2022-08-01T01:38:12.178Z,0.00
2022-08-01T01:39:12.216Z,0.00
2022-08-01T01:40:12.172Z,0.00
2022-08-01T01:41:12.193Z,0.00
2022-08-01T01:42:12.198Z,0.00
2022-08-01T01:43:12.196Z,0.00
2022-08-01T01:44:12.209Z,0.00
2022-08-01T01:45:12.215Z,0.00
2022-08-01T01:46:12.218Z,0.00
2022-08-01T01:47:12.223Z,0.00
2022-08-01T01:48:12.230Z,0.00
2022-08-01T01:49:12.271Z,0.00
2022-08-01T01:50:12.273Z,0.00
2022-08-01T01:51:12.246Z,0.00
2022-08-01T01:52:12.257Z,0.00
2022-08-01T01:53:14.911Z,0.00
2022-08-01T01:54:12.269Z,0.00
2022-08-01T01:55:12.270Z,0.00
2022-08-01T01:56:12.279Z,0.00
2022-08-01T01:57:12.278Z,0.00
2022-08-01T01:58:12.290Z,0.00
2022-08-01T01:59:12.281Z,0.00
2022-08-01T02:00:12.289Z,0.00
2022-08-01T02:01:14.658Z,0.00
2022-08-01T02:02:12.589Z,0.00
2022-08-01T02:03:12.308Z,0.00
2022-08-01T02:04:12.322Z,0.00
2022-08-01T02:05:12.332Z,0.00
2022-08-01T02:06:12.341Z,0.00
2022-08-01T02:07:12.345Z,0.00
2022-08-01T02:08:12.347Z,0.00
2022-08-01T02:09:12.346Z,0.00
2022-08-01T02:10:12.349Z,0.00
2022-08-01T02:11:12.353Z,0.00
2022-08-01T02:12:12.527Z,0.00
2022-08-01T02:13:12.357Z,0.00
2022-08-01T02:14:12.381Z,0.00
2022-08-01T02:15:12.370Z,0.00
2022-08-01T02:16:12.389Z,0.00
2022-08-01T02:17:12.404Z,0.00
2022-08-01T02:18:12.405Z,0.00
2022-08-01T02:19:12.417Z,0.00
2022-08-01T02:20:12.403Z,0.00
2022-08-01T02:21:12.415Z,0.00
2022-08-01T02:22:12.413Z,0.00
2022-08-01T02:23:12.431Z,0.00
2022-08-01T02:24:12.434Z,0.00
2022-08-01T02:25:12.428Z,0.00
2022-08-01T02:26:12.436Z,0.00
2022-08-01T02:27:12.453Z,0.00
2022-08-01T02:28:12.469Z,0.00
2022-08-01T02:29:12.447Z,0.00
2022-08-01T02:30:12.469Z,0.00
2022-08-01T02:31:12.468Z,0.00
2022-08-01T02:32:12.475Z,0.00
2022-08-01T02:33:16.074Z,0.00
2022-08-01T02:34:12.477Z,0.00
2022-08-01T02:35:12.491Z,0.00
2022-08-01T02:36:31.206Z,0.00
2022-08-01T02:37:12.501Z,0.00
2022-08-01T02:38:12.504Z,0.00
2022-08-01T02:39:12.536Z,0.00
2022-08-01T02:40:14.260Z,0.00
2022-08-01T02:41:12.519Z,0.00
2022-08-01T02:42:12.535Z,0.00
2022-08-01T02:43:12.546Z,0.00
2022-08-01T02:44:12.543Z,0.00
2022-08-01T02:45:12.577Z,0.00
2022-08-01T02:46:12.545Z,0.00
2022-08-01T02:47:12.555Z,0.00
2022-08-01T02:48:12.565Z,0.00
2022-08-01T02:49:12.610Z,0.00
2022-08-01T02:50:12.578Z,0.00
2022-08-01T02:51:12.622Z,0.00
2022-08-01T02:52:12.590Z,0.00
2022-08-01T02:53:12.584Z,0.00
2022-08-01T02:54:12.598Z,0.00
2022-08-01T02:55:12.592Z,0.00
2022-08-01T02:56:12.663Z,0.00
2022-08-01T02:57:13.961Z,0.00
2022-08-01T02:58:12.908Z,0.00
2022-08-01T02:59:13.022Z,0.00
2022-08-01T03:00:12.630Z,0.00
2022-08-01T03:01:12.693Z,0.00
2022-08-01T03:02:12.651Z,0.00
2022-08-01T03:03:12.640Z,0.00
2022-08-01T03:04:12.645Z,0.00
2022-08-01T03:05:12.646Z,0.00
2022-08-01T03:06:12.678Z,0.00
2022-08-01T03:07:12.670Z,0.00
2022-08-01T03:08:14.827Z,0.00
2022-08-01T03:09:12.673Z,0.00
2022-08-01T03:10:12.673Z,0.00
2022-08-01T03:11:12.690Z,0.00
2022-08-01T03:12:12.696Z,0.00
2022-08-01T03:13:12.723Z,0.00
2022-08-01T03:14:12.695Z,0.00
2022-08-01T03:15:12.710Z,0.00
2022-08-01T03:16:12.708Z,0.00
2022-08-01T03:17:12.705Z,0.00
2022-08-01T03:18:12.729Z,0.00
2022-08-01T03:19:12.727Z,0.00
2022-08-01T03:20:12.739Z,0.00
2022-08-01T03:21:12.745Z,0.00
2022-08-01T03:22:12.749Z,0.00
2022-08-01T03:23:12.760Z,0.00
2022-08-01T03:24:12.744Z,0.00
2022-08-01T03:25:12.764Z,0.00
2022-08-01T03:26:12.757Z,0.00
2022-08-01T03:27:12.770Z,0.00
2022-08-01T03:28:12.780Z,0.00
2022-08-01T03:29:12.786Z,0.00
2022-08-01T03:30:12.778Z,0.00
2022-08-01T03:31:12.789Z,0.00
2022-08-01T03:32:12.794Z,0.00
2022-08-01T03:33:14.419Z,0.00
2022-08-01T03:34:12.815Z,0.00
2022-08-01T03:35:12.814Z,0.00
2022-08-01T03:36:12.818Z,0.00
2022-08-01T03:37:12.821Z,0.00
2022-08-01T03:38:16.251Z,0.00
2022-08-01T03:39:12.863Z,0.00
2022-08-01T03:40:12.848Z,0.00
2022-08-01T03:41:12.842Z,0.00
2022-08-01T03:42:12.852Z,0.00
2022-08-01T03:43:12.856Z,0.00
2022-08-01T03:44:12.867Z,0.00
2022-08-01T03:45:13.379Z,0.00
2022-08-01T03:46:12.872Z,0.00
2022-08-01T03:47:12.862Z,0.00
2022-08-01T03:48:12.864Z,0.00
2022-08-01T03:49:12.925Z,0.00
2022-08-01T03:50:12.889Z,0.00
2022-08-01T03:51:12.911Z,0.00
2022-08-01T03:52:12.893Z,0.00
2022-08-01T03:53:12.892Z,0.00
2022-08-01T03:54:12.903Z,0.00
2022-08-01T03:55:12.919Z,0.00
2022-08-01T03:56:12.933Z,5.63
2022-08-01T03:57:34.851Z,5.63
2022-08-01T03:58:12.936Z,5.63
2022-08-01T03:59:12.929Z,5.63
2022-08-01T04:00:12.936Z,5.63
2022-08-01T04:01:16.037Z,5.63
2022-08-01T04:02:12.961Z,5.63
2022-08-01T04:03:12.950Z,5.63
2022-08-01T04:04:12.951Z,5.63
2022-08-01T04:05:12.975Z,5.63
2022-08-01T04:06:12.974Z,5.63
2022-08-01T04:07:12.975Z,5.63
2022-08-01T04:08:12.976Z,0.00
2022-08-01T04:09:13.794Z,0.00
2022-08-01T04:10:12.993Z,0.00
2022-08-01T04:11:12.983Z,0.00
2022-08-01T04:12:13.095Z,0.00
2022-08-01T04:13:13.020Z,0.00
2022-08-01T04:14:12.999Z,0.00
2022-08-01T04:15:13.023Z,0.00
2022-08-01T04:16:13.007Z,0.00
2022-08-01T04:17:13.014Z,0.00
2022-08-01T04:18:13.030Z,0.00
2022-08-01T04:19:13.046Z,0.00
2022-08-01T04:20:13.069Z,0.00
2022-08-01T04:21:13.044Z,0.00
2022-08-01T04:22:13.060Z,0.00
2022-08-01T04:23:13.049Z,0.00
2022-08-01T04:24:13.069Z,0.00
2022-08-01T04:25:13.073Z,0.00
2022-08-01T04:26:13.060Z,0.00
2022-08-01T04:27:13.068Z,0.00
2022-08-01T04:28:13.082Z,0.00
2022-08-01T04:29:13.124Z,0.00
2022-08-01T04:30:13.081Z,0.00
2022-08-01T04:31:13.094Z,0.00
2022-08-01T04:32:13.106Z,0.00
2022-08-01T04:33:13.089Z,5.63
2022-08-01T04:34:13.112Z,5.63
2022-08-01T04:35:57.717Z,5.63
2022-08-01T04:36:13.666Z,5.63
2022-08-01T04:37:13.313Z,5.63
2022-08-01T04:38:13.116Z,5.63
2022-08-01T04:39:13.140Z,5.63
2022-08-01T04:40:13.136Z,11.25
2022-08-01T04:41:13.143Z,11.25
2022-08-01T04:42:13.146Z,11.25
2022-08-01T04:43:14.907Z,11.25
2022-08-01T04:44:13.162Z,11.25
2022-08-01T04:45:13.188Z,5.63
2022-08-01T04:46:13.168Z,5.63
2022-08-01T04:47:13.184Z,5.63
2022-08-01T04:48:13.180Z,5.63
2022-08-01T04:49:13.224Z,5.63
2022-08-01T04:50:13.174Z,5.63
2022-08-01T04:51:13.208Z,5.63
2022-08-01T04:52:18.038Z,5.63
2022-08-01T04:53:13.190Z,5.63
2022-08-01T04:54:13.202Z,5.63
2022-08-01T04:55:13.210Z,5.63
2022-08-01T04:56:13.205Z,5.63
2022-08-01T04:57:13.234Z,5.63
2022-08-01T04:58:17.373Z,5.63
2022-08-01T04:59:19.629Z,5.63
2022-08-01T05:00:13.227Z,5.63
2022-08-01T05:01:13.285Z,5.63
2022-08-01T05:02:13.242Z,5.63
2022-08-01T05:03:13.323Z,5.63
2022-08-01T05:04:13.240Z,5.63
2022-08-01T05:05:13.588Z,5.63
2022-08-01T05:06:13.269Z,5.63
2022-08-01T05:07:13.259Z,5.63
2022-08-01T05:08:13.271Z,5.63
2022-08-01T05:09:13.284Z,5.63
2022-08-01T05:10:13.310Z,5.63
2022-08-01T05:11:13.281Z,5.63
2022-08-01T05:12:13.285Z,5.63
2022-08-01T05:13:13.333Z,5.63
2022-08-01T05:14:13.300Z,5.63
2022-08-01T05:15:15.713Z,5.63
2022-08-01T05:16:13.304Z,5.63
2022-08-01T05:17:13.320Z,5.63
2022-08-01T05:18:13.319Z,11.25
2022-08-01T05:19:13.330Z,11.25
2022-08-01T05:20:13.333Z,11.25
2022-08-01T05:21:13.350Z,11.25
2022-08-01T05:22:13.341Z,11.25
2022-08-01T05:23:20.555Z,11.25
2022-08-01T05:24:13.350Z,11.25
2022-08-01T05:25:13.379Z,11.25
2022-08-01T05:26:14.619Z,16.88
2022-08-01T05:27:13.574Z,16.88
2022-08-01T05:28:13.366Z,16.88
2022-08-01T05:29:13.374Z,16.88
2022-08-01T05:30:13.382Z,22.50
2022-08-01T05:31:13.399Z,22.50
2022-08-01T05:32:13.380Z,22.50
2022-08-01T05:33:13.404Z,22.50
2022-08-01T05:34:15.283Z,22.50
2022-08-01T05:35:13.407Z,28.13
2022-08-01T05:36:13.432Z,22.50
2022-08-01T05:37:13.436Z,22.50
2022-08-01T05:38:14.945Z,22.50
2022-08-01T05:39:13.438Z,28.13
2022-08-01T05:40:13.429Z,28.13
2022-08-01T05:41:13.434Z,33.75
2022-08-01T05:42:13.439Z,45.00
2022-08-01T05:43:13.440Z,56.25
2022-08-01T05:44:13.452Z,56.25
2022-08-01T05:45:13.459Z,50.63
2022-08-01T05:46:13.479Z,45.00
2022-08-01T05:47:13.480Z,39.38
2022-08-01T05:48:13.469Z,45.00
2022-08-01T05:49:13.522Z,45.00
2022-08-01T05:50:13.486Z,33.75
2022-08-01T05:51:13.476Z,28.13
2022-08-01T05:52:13.492Z,28.13
2022-08-01T05:53:13.506Z,28.13
2022-08-01T05:54:13.488Z,22.50
2022-08-01T05:55:13.497Z,22.50
2022-08-01T05:56:13.501Z,16.88
2022-08-01T05:57:13.525Z,22.50
2022-08-01T05:58:13.537Z,22.50
2022-08-01T05:59:13.521Z,22.50
2022-08-01T06:00:13.545Z,16.88
2022-08-01T06:01:13.524Z,22.50
2022-08-01T06:02:13.583Z,16.88
2022-08-01T06:03:13.552Z,16.88
2022-08-01T06:04:13.543Z,16.88
2022-08-01T06:05:13.828Z,16.88
2022-08-01T06:06:13.606Z,11.25
2022-08-01T06:07:13.581Z,11.25
2022-08-01T06:08:13.560Z,11.25
2022-08-01T06:09:13.566Z,11.25
2022-08-01T06:10:13.568Z,16.88
2022-08-01T06:11:13.587Z,16.88
2022-08-01T06:12:13.601Z,22.50
2022-08-01T06:13:13.613Z,16.88
2022-08-01T06:14:13.598Z,22.50
2022-08-01T06:15:13.614Z,22.50
2022-08-01T06:16:13.633Z,22.50
2022-08-01T06:17:13.624Z,22.50
2022-08-01T06:18:13.620Z,16.88
2022-08-01T06:19:13.639Z,22.50
2022-08-01T06:20:13.647Z,16.88
2022-08-01T06:21:13.637Z,16.88
2022-08-01T06:22:13.661Z,11.25
2022-08-01T06:23:31.738Z,16.88
2022-08-01T06:24:13.653Z,11.25
2022-08-01T06:25:13.650Z,11.25
2022-08-01T06:26:13.658Z,11.25
2022-08-01T06:27:21.571Z,11.25
2022-08-01T06:28:13.661Z,11.25
2022-08-01T06:29:13.677Z,16.88
2022-08-01T06:30:13.672Z,16.88
2022-08-01T06:31:13.680Z,16.88
2022-08-01T06:32:24.231Z,11.25
2022-08-01T06:33:13.707Z,11.25
2022-08-01T06:34:13.751Z,11.25
2022-08-01T06:35:13.712Z,11.25
2022-08-01T06:36:13.699Z,11.25
2022-08-01T06:37:13.717Z,22.50
2022-08-01T06:38:13.751Z,33.75
2022-08-01T06:39:13.723Z,50.63
2022-08-01T06:40:17.125Z,56.25
2022-08-01T06:41:13.731Z,45.00
2022-08-01T06:42:13.744Z,33.75
2022-08-01T06:43:13.747Z,22.50
2022-08-01T06:44:13.755Z,22.50
2022-08-01T06:45:13.764Z,22.50
2022-08-01T06:46:13.768Z,22.50
2022-08-01T06:47:13.769Z,28.13
2022-08-01T06:48:13.761Z,33.75
2022-08-01T06:49:13.845Z,28.13
2022-08-01T06:50:13.800Z,33.75
2022-08-01T06:51:13.780Z,28.13
2022-08-01T06:52:13.793Z,28.13
2022-08-01T06:53:13.814Z,39.38
2022-08-01T06:54:13.800Z,45.00
2022-08-01T06:55:13.802Z,45.00
2022-08-01T06:56:13.800Z,39.38
2022-08-01T06:57:13.846Z,28.13
2022-08-01T06:58:13.827Z,16.88
2022-08-01T06:59:13.830Z,22.50
2022-08-01T07:00:13.840Z,22.50
2022-08-01T07:01:13.930Z,28.13
2022-08-01T07:02:13.838Z,28.13
2022-08-01T07:03:13.836Z,33.75
2022-08-01T07:04:13.881Z,28.13
2022-08-01T07:05:13.861Z,28.13
2022-08-01T07:06:13.873Z,28.13
2022-08-01T07:07:13.893Z,33.75
2022-08-01T07:08:13.869Z,33.75
2022-08-01T07:09:14.760Z,28.13
2022-08-01T07:10:13.883Z,33.75
2022-08-01T07:11:13.904Z,33.75
2022-08-01T07:12:13.887Z,39.38
2022-08-01T07:13:13.896Z,45.00
2022-08-01T07:14:13.896Z,45.00
2022-08-01T07:15:13.918Z,33.75
2022-08-01T07:16:13.923Z,33.75
2022-08-01T07:17:13.914Z,50.63
2022-08-01T07:18:13.919Z,45.00
2022-08-01T07:19:13.932Z,33.75
2022-08-01T07:20:16.569Z,22.50
2022-08-01T07:21:38.389Z,16.88
2022-08-01T07:22:13.952Z,16.88
2022-08-01T07:23:13.953Z,28.13
2022-08-01T07:24:14.536Z,22.50
2022-08-01T07:25:13.960Z,16.88
2022-08-01T07:26:13.973Z,22.50
2022-08-01T07:27:24.151Z,22.50
2022-08-01T07:28:13.980Z,33.75
2022-08-01T07:29:14.007Z,28.13
2022-08-01T07:30:14.018Z,28.13
2022-08-01T07:31:13.992Z,22.50
2022-08-01T07:32:13.991Z,28.13
2022-08-01T07:33:14.019Z,28.13
2022-08-01T07:34:14.005Z,28.13
2022-08-01T07:35:14.015Z,33.75
2022-08-01T07:36:14.010Z,61.88
2022-08-01T07:37:14.030Z,73.13
2022-08-01T07:38:14.021Z,73.13
2022-08-01T07:39:14.049Z,73.13
2022-08-01T07:40:14.057Z,67.50
2022-08-01T07:41:14.056Z,56.25
2022-08-01T07:42:14.335Z,50.63
2022-08-01T07:43:14.050Z,50.63
2022-08-01T07:44:14.069Z,56.25
2022-08-01T07:45:14.069Z,61.88
2022-08-01T07:46:14.062Z,67.50
2022-08-01T07:47:14.079Z,67.50
2022-08-01T07:48:14.095Z,56.25
2022-08-01T07:49:14.190Z,56.25
2022-08-01T07:50:14.096Z,50.63
2022-08-01T07:51:14.114Z,39.38
2022-08-01T07:52:14.210Z,28.13
2022-08-01T07:53:14.118Z,22.50
2022-08-01T07:54:14.106Z,22.50
2022-08-01T07:55:16.525Z,16.88
2022-08-01T07:56:14.160Z,16.88
2022-08-01T07:57:14.164Z,16.88
2022-08-01T07:58:14.145Z,22.50
2022-08-01T07:59:14.148Z,28.13
2022-08-01T08:00:14.162Z,39.38
2022-08-01T08:01:14.161Z,50.63
2022-08-01T08:02:14.259Z,61.88
2022-08-01T08:03:14.188Z,45.00
2022-08-01T08:04:14.163Z,39.38
2022-08-01T08:05:14.172Z,28.13
2022-08-01T08:06:14.192Z,22.50
2022-08-01T08:07:14.201Z,22.50
2022-08-01T08:08:14.186Z,11.25
2022-08-01T08:09:14.203Z,11.25
2022-08-01T08:10:14.210Z,5.63
2022-08-01T08:11:14.204Z,5.63
2022-08-01T08:12:14.239Z,5.63
2022-08-01T08:13:14.224Z,11.25
2022-08-01T08:14:14.251Z,11.25
2022-08-01T08:15:14.235Z,16.88
2022-08-01T08:16:14.232Z,16.88
2022-08-01T08:17:14.245Z,22.50
2022-08-01T08:18:14.248Z,22.50
2022-08-01T08:19:14.266Z,33.75
2022-08-01T08:20:14.266Z,45.00
2022-08-01T08:21:14.269Z,39.38
2022-08-01T08:22:14.262Z,39.38
2022-08-01T08:23:14.318Z,45.00
2022-08-01T08:24:14.269Z,61.88
2022-08-01T08:25:14.294Z,67.50
2022-08-01T08:26:14.284Z,67.50
2022-08-01T08:27:14.300Z,61.88
2022-08-01T08:28:14.289Z,73.13
2022-08-01T08:29:14.314Z,61.88
2022-08-01T08:30:14.312Z,78.75
2022-08-01T08:31:50.881Z,78.75
2022-08-01T08:32:14.321Z,90.00
2022-08-01T08:33:14.329Z,112.50
2022-08-01T08:34:14.323Z,140.63
2022-08-01T08:35:18.465Z,151.88
2022-08-01T08:36:14.371Z,140.63
2022-08-01T08:37:14.343Z,146.25
2022-08-01T08:38:14.354Z,135.00
2022-08-01T08:39:14.362Z,118.13
2022-08-01T08:40:14.368Z,146.25
2022-08-01T08:41:17.918Z,112.50
2022-08-01T08:42:14.389Z,78.75
2022-08-01T08:43:14.375Z,56.25
2022-08-01T08:44:14.395Z,56.25
2022-08-01T08:45:14.395Z,45.00
2022-08-01T08:46:14.402Z,39.38
2022-08-01T08:47:19.416Z,33.75
2022-08-01T08:48:14.411Z,28.13
2022-08-01T08:49:14.436Z,28.13
2022-08-01T08:50:14.431Z,22.50
2022-08-01T08:51:14.430Z,22.50
2022-08-01T08:52:14.441Z,28.13
2022-08-01T08:53:18.357Z,28.13
2022-08-01T08:54:14.454Z,39.38
2022-08-01T08:55:14.446Z,45.00
2022-08-01T08:56:14.481Z,50.63
2022-08-01T08:57:14.475Z,45.00
2022-08-01T08:58:14.488Z,50.63
2022-08-01T08:59:14.495Z,56.25
2022-08-01T09:00:14.476Z,61.88
2022-08-01T09:01:14.481Z,61.88
2022-08-01T09:02:14.846Z,56.25
2022-08-01T09:03:14.533Z,50.63
2022-08-01T09:04:14.520Z,45.00
2022-08-01T09:05:19.083Z,39.38
2022-08-01T09:06:14.503Z,33.75
2022-08-01T09:07:14.508Z,28.13
2022-08-01T09:08:14.531Z,28.13
2022-08-01T09:09:14.558Z,28.13
2022-08-01T09:10:14.720Z,22.50
2022-08-01T09:11:22.579Z,22.50
2022-08-01T09:12:14.546Z,22.50
2022-08-01T09:13:14.560Z,22.50
2022-08-01T09:14:14.823Z,28.13
2022-08-01T09:15:14.583Z,22.50
2022-08-01T09:16:14.579Z,22.50
2022-08-01T09:17:14.582Z,22.50
2022-08-01T09:18:14.590Z,22.50
2022-08-01T09:19:15.885Z,22.50
2022-08-01T09:20:14.605Z,22.50
2022-08-01T09:21:14.603Z,16.88
2022-08-01T09:22:14.608Z,16.88
2022-08-01T09:23:14.599Z,16.88
2022-08-01T09:24:14.624Z,16.88
2022-08-01T09:25:14.627Z,22.50
2022-08-01T09:26:14.652Z,22.50
2022-08-01T09:27:14.622Z,22.50
2022-08-01T09:28:14.631Z,28.13
2022-08-01T09:29:14.632Z,28.13
2022-08-01T09:30:17.110Z,28.13
2022-08-01T09:31:14.683Z,33.75
2022-08-01T09:32:16.444Z,33.75
2022-08-01T09:33:18.116Z,39.38
2022-08-01T09:34:14.667Z,45.00
2022-08-01T09:35:14.710Z,50.63
2022-08-01T09:36:14.677Z,50.63
2022-08-01T09:37:14.681Z,50.63
2022-08-01T09:38:14.716Z,56.25
2022-08-01T09:39:14.693Z,56.25
2022-08-01T09:40:14.695Z,61.88
2022-08-01T09:41:14.697Z,67.50
2022-08-01T09:42:14.713Z,67.50
2022-08-01T09:43:14.962Z,67.50
2022-08-01T09:44:14.711Z,73.13
2022-08-01T09:45:18.840Z,78.75
2022-08-01T09:46:22.281Z,78.75
2022-08-01T09:47:15.401Z,84.38
2022-08-01T09:48:14.744Z,78.75
2022-08-01T09:49:14.832Z,84.38
2022-08-01T09:50:22.927Z,84.38
2022-08-01T09:51:58.949Z,73.13
2022-08-01T09:52:14.784Z,73.13
2022-08-01T09:53:29.734Z,67.50
2022-08-01T09:54:14.774Z,56.25
2022-08-01T09:55:14.774Z,50.63
2022-08-01T09:56:14.783Z,45.00
2022-08-01T09:57:14.933Z,45.00
2022-08-01T09:58:14.822Z,39.38
2022-08-01T09:59:14.822Z,39.38
2022-08-01T10:00:24.268Z,33.75
2022-08-01T10:01:14.813Z,33.75
2022-08-01T10:02:14.821Z,33.75
2022-08-01T10:03:14.861Z,39.38
2022-08-01T10:04:15.297Z,39.38
2022-08-01T10:05:22.972Z,39.38
2022-08-01T10:06:14.838Z,33.75
2022-08-01T10:07:14.852Z,28.13
2022-08-01T10:08:14.885Z,28.13
2022-08-01T10:09:14.850Z,22.50
2022-08-01T10:10:15.066Z,22.50
2022-08-01T10:11:16.576Z,22.50
2022-08-01T10:12:15.491Z,16.88
2022-08-01T10:13:14.916Z,16.88
2022-08-01T10:14:17.774Z,16.88
2022-08-01T10:15:14.892Z,16.88
2022-08-01T10:16:15.815Z,16.88
2022-08-01T10:17:18.365Z,16.88
2022-08-01T10:18:16.494Z,22.50
2022-08-01T10:19:15.623Z,22.50
2022-08-01T10:20:28.983Z,22.50
2022-08-01T10:21:14.932Z,28.13
2022-08-01T10:22:14.922Z,33.75
2022-08-01T10:23:14.939Z,45.00
2022-08-01T10:24:14.940Z,50.63
2022-08-01T10:25:14.954Z,56.25
2022-08-01T10:26:14.962Z,61.88
2022-08-01T10:27:15.068Z,61.88
2022-08-01T10:28:14.970Z,67.50
2022-08-01T10:29:46.702Z,67.50
2022-08-01T10:30:23.382Z,73.13
2022-08-01T10:31:14.988Z,67.50
2022-08-01T10:32:14.985Z,61.88
2022-08-01T10:33:15.313Z,56.25
2022-08-01T10:34:15.015Z,50.63
2022-08-01T10:35:15.714Z,45.00
2022-08-01T10:36:15.012Z,45.00
2022-08-01T10:37:15.029Z,45.00
2022-08-01T10:38:15.029Z,45.00
2022-08-01T10:39:15.042Z,50.63
2022-08-01T10:40:29.829Z,56.25
2022-08-01T10:41:15.039Z,56.25
2022-08-01T10:42:15.689Z,50.63
2022-08-01T10:43:15.039Z,50.63
2022-08-01T10:44:15.070Z,45.00
2022-08-01T10:45:15.067Z,33.75
2022-08-01T10:46:15.071Z,28.13
2022-08-01T10:47:19.493Z,28.13
2022-08-01T10:48:15.072Z,33.75
2022-08-01T10:49:15.167Z,28.13
2022-08-01T10:50:15.111Z,33.75
2022-08-01T10:51:17.455Z,33.75
2022-08-01T10:52:15.105Z,39.38
2022-08-01T10:53:16.413Z,45.00
2022-08-01T10:54:15.104Z,45.00
2022-08-01T10:55:15.130Z,50.63
2022-08-01T10:56:16.683Z,50.63
2022-08-01T10:57:15.151Z,56.25
2022-08-01T10:58:15.890Z,61.88
2022-08-01T10:59:15.133Z,61.88
2022-08-01T11:00:15.136Z,67.50
2022-08-01T11:01:15.194Z,73.13
2022-08-01T11:02:15.159Z,73.13
2022-08-01T11:03:15.182Z,84.38
2022-08-01T11:04:16.421Z,95.63
2022-08-01T11:05:15.177Z,101.25
2022-08-01T11:06:15.172Z,101.25
2022-08-01T11:07:15.186Z,84.38
2022-08-01T11:08:15.196Z,78.75
2022-08-01T11:09:16.262Z,78.75
2022-08-01T11:10:15.230Z,84.38
2022-08-01T11:11:15.214Z,90.00
2022-08-01T11:12:23.527Z,90.00
2022-08-01T11:13:15.252Z,95.63
2022-08-01T11:14:15.243Z,101.25
2022-08-01T11:15:15.226Z,101.25
2022-08-01T11:16:16.391Z,123.75
2022-08-01T11:17:15.236Z,118.13
2022-08-01T11:18:15.297Z,112.50
2022-08-01T11:19:15.258Z,106.88
2022-08-01T11:20:15.272Z,101.25
2022-08-01T11:21:58.868Z,78.75
2022-08-01T11:22:15.263Z,67.50
2022-08-01T11:23:15.282Z,67.50
2022-08-01T11:24:15.295Z,67.50
2022-08-01T11:25:15.285Z,50.63
2022-08-01T11:26:15.301Z,45.00
2022-08-01T11:27:15.294Z,33.75
2022-08-01T11:28:15.471Z,28.13
2022-08-01T11:29:20.412Z,28.13
2022-08-01T11:30:15.331Z,33.75
2022-08-01T11:31:15.332Z,28.13
2022-08-01T11:32:15.339Z,33.75
2022-08-01T11:33:15.339Z,39.38
2022-08-01T11:34:15.614Z,45.00
2022-08-01T11:35:17.112Z,39.38
2022-08-01T11:36:15.933Z,39.38
2022-08-01T11:37:15.515Z,39.38
2022-08-01T11:38:15.375Z,33.75
2022-08-01T11:39:15.363Z,33.75
2022-08-01T11:40:15.375Z,33.75
2022-08-01T11:41:15.379Z,33.75
2022-08-01T11:42:15.397Z,33.75
2022-08-01T11:43:15.396Z,39.38
2022-08-01T11:44:15.394Z,45.00
2022-08-01T11:45:18.406Z,50.63
2022-08-01T11:46:15.403Z,56.25
2022-08-01T11:47:15.452Z,56.25
2022-08-01T11:48:15.417Z,45.00
2022-08-01T11:49:15.477Z,39.38
2022-08-01T11:50:15.437Z,33.75
2022-08-01T11:51:21.531Z,28.13
2022-08-01T11:52:15.458Z,28.13
2022-08-01T11:53:15.469Z,22.50
2022-08-01T11:54:15.461Z,28.13
2022-08-01T11:55:16.818Z,33.75
2022-08-01T11:56:15.468Z,28.13
2022-08-01T11:57:15.478Z,33.75
2022-08-01T11:58:15.493Z,33.75
2022-08-01T11:59:15.478Z,39.38
2022-08-01T12:00:16.679Z,50.63
2022-08-01T12:01:15.499Z,61.88
2022-08-01T12:02:15.536Z,67.50
2022-08-01T12:03:20.002Z,78.75
2022-08-01T12:04:15.513Z,90.00
2022-08-01T12:05:15.869Z,95.63
2022-08-01T12:06:15.529Z,101.25
2022-08-01T12:07:15.527Z,78.75
2022-08-01T12:08:15.560Z,73.13
2022-08-01T12:09:15.534Z,73.13
2022-08-01T12:10:16.256Z,73.13
2022-08-01T12:11:15.545Z,78.75
2022-08-01T12:12:15.563Z,84.38
2022-08-01T12:13:15.590Z,112.50
2022-08-01T12:14:15.573Z,129.38
2022-08-01T12:15:15.569Z,135.00
2022-08-01T12:16:15.584Z,123.75
2022-08-01T12:17:15.589Z,101.25
2022-08-01T12:18:15.604Z,90.00
2022-08-01T12:19:15.599Z,84.38
2022-08-01T12:20:15.603Z,78.75
2022-08-01T12:21:15.635Z,84.38
2022-08-01T12:22:15.615Z,78.75
2022-08-01T12:23:15.629Z,78.75
2022-08-01T12:24:15.645Z,73.13
2022-08-01T12:25:15.633Z,61.88
2022-08-01T12:26:29.257Z,56.25
2022-08-01T12:27:15.642Z,56.25
2022-08-01T12:28:15.654Z,56.25
2022-08-01T12:29:15.687Z,56.25
2022-08-01T12:30:15.658Z,56.25
2022-08-01T12:31:15.676Z,56.25
2022-08-01T12:32:15.673Z,56.25
2022-08-01T12:33:15.702Z,56.25
2022-08-01T12:34:15.690Z,50.63
2022-08-01T12:35:18.468Z,56.25
2022-08-01T12:36:15.722Z,61.88
2022-08-01T12:37:15.708Z,78.75
2022-08-01T12:38:15.717Z,84.38
2022-08-01T12:39:15.726Z,95.63
2022-08-01T12:40:15.730Z,95.63
2022-08-01T12:41:15.746Z,90.00
2022-08-01T12:42:15.746Z,90.00
2022-08-01T12:43:28.312Z,84.38
2022-08-01T12:44:15.745Z,95.63
2022-08-01T12:45:15.761Z,95.63
2022-08-01T12:46:15.771Z,101.25
2022-08-01T12:47:15.817Z,106.88
2022-08-01T12:48:15.787Z,106.88
2022-08-01T12:49:15.851Z,112.50
2022-08-01T12:50:15.796Z,118.13
2022-08-01T12:51:15.801Z,118.13
2022-08-01T12:52:15.813Z,123.75
2022-08-01T12:53:16.888Z,123.75
2022-08-01T12:54:15.821Z,112.50
2022-08-01T12:55:15.818Z,101.25
2022-08-01T12:56:15.823Z,101.25
2022-08-01T12:57:15.845Z,90.00
2022-08-01T12:58:16.451Z,106.88
2022-08-01T12:59:15.850Z,112.50
2022-08-01T13:00:15.856Z,118.13
2022-08-01T13:01:15.937Z,123.75